Meteo Giornale » Osservazioni meteo Stati Uniti (USA) » New Castle
ore: 13:56 - Osservazioni Meteo New Castle
Lat. 41° 2' N Lon. 80° 25' W Alt. 327 metri s.l.m.
31 °C
Molto Nuvoloso
Temp. 24 Ore
22 °C
31 °C
Ovest
9.3 Km/h
Dew point 23 °C
Umidità 62 %
Visibilità 10 Km
Il sole sorge alle ore 06:48
Il sole tramonta alle ore 19:54
| Data e Ora | Cielo e Fenomeni | T °C | DP °C | Um. % | Pres. hPa | Vis. km | Vento km/h | |
|---|---|---|---|---|---|---|---|---|
| Oggi h: 13:56 | Molto Nuvoloso | 31 | 23 | 62 | 1017 | 10 | O 9.3 | |
| Oggi h: 12:56 | Poco Nuvoloso | 31 | 23 | 62 | 1017 | 10 | O 14.8 | |
| Oggi h: 11:56 | Sereno | 29 | 22 | 66 | 1017 | 10 | O 16.7 | |
| Oggi h: 10:56 | Sereno | 28 | 22 | 69 | 1017 | 10 | O/SO 13 | |
| Oggi h: 09:56 | Sereno | 27 | 22 | 74 | 1017 | 10 | SO 9.3 | |
| Oggi h: 08:56 | Sereno | 24 | 22 | 88 | 1017 | 10 | N 5.5 | |
| Oggi h: 07:56 | Molto Nuvoloso | 24 | 22 | 88 | 1017 | 10 | N 5.5 | |
| Oggi h: 06:56 | Molto Nuvoloso | 23 | 22 | 94 | 1017 | 10 | N 5.5 | |
| Oggi h: 05:56 | Coperto | 23 | 22 | 94 | 1017 | 10 | S/SO 9.3 | |
| Oggi h: 04:56 | Coperto | 23 | 22 | 94 | 1017 | 10 | N 5.5 | |
| Oggi h: 03:56 | Coperto | 23 | 22 | 94 | 1017 | 10 | N 0 | |
| Oggi h: 02:56 | Coperto | 23 | 22 | 94 | 1017 | 10 | N 5.5 | |
| Oggi h: 01:56 | Poco Nuvoloso | 23 | 22 | 94 | 1018 | 10 | N 5.5 | |
| Oggi h: 00:56 | Sereno | 22 | 22 | 100 | 1018 | 13 | N 0 | |
| Ieri h: 23:56 | Sereno | 22 | 22 | 100 | 1018 | 14 | N 0 | |
| Ieri h: 22:56 | Nuvoloso | 25 | 22 | 83 | 1017 | 10 | N 0 | |
| Ieri h: 21:56 | Sereno | 25 | 23 | 88 | 1018 | 10 | N 5.5 | |
| Ieri h: 20:56 | Nuvoloso | 24 | 23 | 94 | 1018 | 11 | N 5.5 | |
| Ieri h: 19:56 | Poco Nuvoloso | 26 | 22 | 78 | 1018 | 10 | N 0 | |
| Ieri h: 18:56 | Molto Nuvoloso | 26 | 22 | 78 | 1017 | 10 | N 5.5 | |
| Ieri h: 17:56 | Nuvoloso | 28 | 22 | 69 | 1018 | 10 | N 0 | |
| Ieri h: 16:56 | Poco Nuvoloso | 28 | 21 | 65 | 1018 | 10 | O 9.3 | |
| Ieri h: 15:56 | Molto Nuvoloso | 29 | 20 | 58 | 1018 | 10 | SO 13 | |
| Ieri h: 14:56 | Coperto | 28 | 21 | 65 | 1019 | 10 | SO 7.4 | |



